Time;durP1;ratioP1;P1;durP2;ratioP2;P2;SDS_P1;SDS_P2;PMS_P1;PMS_P2;Temp;Humidity;BMP_temperature;BMP_pressure;BME280_temperature;BME280_humidity;BME280_pressure;Samples;Min_cycle;Max_cycle;Signal;HPM_P1;HPM_P2
2023/05/17 00:00:34;;;;;;;;;;;18.50;66.80;;;;;;5073620;28;20239;-82
2023/05/17 00:03:00;;;;;;;;;;;18.50;66.90;;;;;;5056924;28;20293;-83
2023/05/17 00:05:25;;;;;;;;;;;18.50;66.90;;;;;;5057605;28;19909;-82
2023/05/17 00:07:51;;;;;;;;;;;18.50;67.00;;;;;;5058007;28;19917;-82
2023/05/17 00:13:19;;;;;;;;;;;18.40;67.00;;;;;;5054307;28;20122;-82
2023/05/17 00:15:45;;;;;;;;;;;18.40;67.00;;;;;;5055812;28;20264;-83
2023/05/17 00:18:10;;;;;;;;;;;18.40;67.10;;;;;;5070260;28;19932;-83
2023/05/17 00:20:36;;;;;;;;;;;18.40;67.20;;;;;;5067714;28;19974;-83
2023/05/17 00:23:02;;;;;;;;;;;18.40;67.20;;;;;;5069497;28;20023;-82
2023/05/17 00:25:28;;;;;;;;;;;18.40;67.30;;;;;;5054968;28;20356;-82
2023/05/17 00:27:54;;;;;;;;;;;18.40;67.30;;;;;;5055184;28;19909;-83
2023/05/17 00:30:20;;;;;;;;;;;18.40;67.40;;;;;;5072914;28;19956;-83
2023/05/17 00:32:46;;;;;;;;;;;18.30;67.30;;;;;;5073169;28;19908;-83
2023/05/17 00:35:11;;;;;;;;;;;18.30;67.30;;;;;;5058521;28;20272;-83
2023/05/17 00:37:37;;;;;;;;;;;18.30;67.40;;;;;;5076975;28;20023;-83
2023/05/17 00:40:04;;;;;;;;;;;18.30;68.10;;;;;;5061073;28;19934;-83
2023/05/17 00:42:29;;;;;;;;;;;18.30;67.60;;;;;;5077879;28;20007;-82
2023/05/17 00:44:55;;;;;;;;;;;18.30;67.60;;;;;;5060918;28;19996;-82
2023/05/17 00:47:21;;;;;;;;;;;18.30;67.60;;;;;;5077828;28;19909;-82
2023/05/17 00:49:47;;;;;;;;;;;18.30;67.70;;;;;;5076813;28;20018;-82
2023/05/17 00:52:13;;;;;;;;;;;18.20;67.60;;;;;;5059356;28;19909;-83
2023/05/17 00:54:38;;;;;;;;;;;18.20;67.60;;;;;;5058341;28;20325;-83
2023/05/17 00:57:05;;;;;;;;;;;18.20;67.70;;;;;;5057928;28;19912;-83
2023/05/17 00:59:30;;;;;;;;;;;18.20;67.70;;;;;;5057991;28;19966;-81
2023/05/17 01:01:56;;;;;;;;;;;18.20;67.70;;;;;;5057841;28;19916;-83
2023/05/17 01:04:23;;;;;;;;;;;18.20;67.70;;;;;;5074944;28;20015;-83
2023/05/17 01:06:49;;;;;;;;;;;18.20;67.80;;;;;;5057784;28;19909;-83
2023/05/17 01:09:15;;;;;;;;;;;18.20;67.80;;;;;;5057566;28;19915;-82
2023/05/17 01:11:46;;;;;;;;;;;18.20;67.90;;;;;;5058562;28;19952;-82
2023/05/17 01:14:12;;;;;;;;;;;18.10;67.80;;;;;;5059257;28;19999;-82
2023/05/17 01:16:39;;;;;;;;;;;18.20;67.80;;;;;;5058843;28;20019;-83
2023/05/17 01:19:23;;;;;;;;;;;18.10;67.80;;;;;;5059149;28;20243;-82
2023/05/17 01:21:58;;;;;;;;;;;18.10;67.90;;;;;;5076783;28;19909;-82
2023/05/17 01:24:26;;;;;;;;;;;18.10;67.90;;;;;;5060451;28;19909;-82
2023/05/17 01:26:52;;;;;;;;;;;18.10;67.90;;;;;;5077156;28;19973;-82
2023/05/17 01:29:20;;;;;;;;;;;18.10;68.00;;;;;;5098516;22;19936;-12
2023/05/17 01:31:47;;;;;;;;;;;18.10;68.00;;;;;;5095671;28;19908;-15
2023/05/17 01:34:12;;;;;;;;;;;18.00;67.90;;;;;;5096375;28;19908;-12
2023/05/17 01:36:38;;;;;;;;;;;18.00;67.90;;;;;;5095663;28;19908;-12
2023/05/17 01:39:04;;;;;;;;;;;18.00;68.00;;;;;;5095885;28;19920;-13
2023/05/17 01:41:33;;;;;;;;;;;18.00;68.00;;;;;;5096906;28;20274;-14
2023/05/17 01:44:04;;;;;;;;;;;18.00;68.00;;;;;;5097437;28;19908;-12
2023/05/17 01:46:42;;;;;;;;;;;18.00;68.10;;;;;;5097009;28;19908;-14
2023/05/17 01:49:11;;;;;;;;;;;18.00;68.00;;;;;;5079566;28;19912;-13
2023/05/17 01:51:43;;;;;;;;;;;18.00;68.10;;;;;;5098067;28;19908;-15
2023/05/17 01:54:10;;;;;;;;;;;18.00;68.10;;;;;;5078100;28;19908;-13
2023/05/17 01:56:40;;;;;;;;;;;18.00;68.20;;;;;;5096026;28;19908;-14
2023/05/17 01:59:06;;;;;;;;;;;17.90;68.10;;;;;;5096216;28;19909;-14
2023/05/17 02:01:32;;;;;;;;;;;17.90;68.10;;;;;;5096659;28;20181;-14
2023/05/17 02:03:58;;;;;;;;;;;17.90;68.10;;;;;;5095700;28;20049;-14
2023/05/17 02:06:24;;;;;;;;;;;17.90;68.10;;;;;;5077290;28;19915;-14
2023/05/17 02:08:50;;;;;;;;;;;17.90;68.10;;;;;;5078232;28;20002;-12
2023/05/17 02:11:15;;;;;;;;;;;17.90;68.20;;;;;;5078892;28;19908;-14
2023/05/17 02:13:40;;;;;;;;;;;17.90;68.20;;;;;;5078242;28;19916;-15
2023/05/17 02:16:06;;;;;;;;;;;17.90;68.20;;;;;;5078827;28;19919;-17
2023/05/17 02:18:34;;;;;;;;;;;17.90;68.20;;;;;;5096336;28;19939;-18
2023/05/17 02:21:00;;;;;;;;;;;17.80;68.20;;;;;;5078927;28;19958;-17
2023/05/17 02:23:25;;;;;;;;;;;17.80;68.20;;;;;;5077286;28;19977;-17
2023/05/17 02:25:51;;;;;;;;;;;17.80;68.20;;;;;;5096578;28;19912;-17
2023/05/17 02:28:16;;;;;;;;;;;17.80;68.20;;;;;;5096811;28;19962;-15
2023/05/17 02:30:43;;;;;;;;;;;17.80;68.20;;;;;;5078643;28;20318;-16
2023/05/17 02:33:08;;;;;;;;;;;17.80;68.20;;;;;;5078728;28;20316;-17
2023/05/17 02:35:34;;;;;;;;;;;17.80;68.20;;;;;;5095726;28;19975;-16
2023/05/17 02:38:00;;;;;;;;;;;17.70;68.20;;;;;;5095453;28;20269;-17
2023/05/17 02:40:25;;;;;;;;;;;17.80;68.20;;;;;;5095642;28;19980;-17
2023/05/17 02:42:51;;;;;;;;;;;17.80;68.30;;;;;;5078360;28;19913;-15
2023/05/17 02:45:17;;;;;;;;;;;17.70;68.20;;;;;;5078051;28;19973;-16
2023/05/17 02:47:42;;;;;;;;;;;17.80;68.20;;;;;;5095620;28;19919;-16
2023/05/17 02:50:08;;;;;;;;;;;17.70;68.20;;;;;;5078314;28;19919;-17
2023/05/17 02:52:34;;;;;;;;;;;17.70;68.20;;;;;;5095404;28;20273;-16
2023/05/17 02:55:00;;;;;;;;;;;17.70;68.20;;;;;;5078556;28;19908;-17
2023/05/17 02:57:25;;;;;;;;;;;17.70;68.20;;;;;;5095559;28;19919;-17
2023/05/17 02:59:50;;;;;;;;;;;17.70;68.20;;;;;;5077966;28;19922;-18
2023/05/17 03:02:16;;;;;;;;;;;17.70;68.20;;;;;;5094724;28;20269;-15
2023/05/17 03:04:42;;;;;;;;;;;17.70;68.20;;;;;;5094692;28;20421;-16
2023/05/17 03:07:07;;;;;;;;;;;17.70;68.20;;;;;;5076424;28;20304;-17
2023/05/17 03:09:33;;;;;;;;;;;17.60;68.20;;;;;;5077152;28;20181;-16
2023/05/17 03:11:59;;;;;;;;;;;17.60;68.20;;;;;;5093670;28;19908;-16
2023/05/17 03:14:24;;;;;;;;;;;17.60;68.10;;;;;;5077057;28;20058;-14
2023/05/17 03:16:50;;;;;;;;;;;17.60;68.20;;;;;;5093919;28;20301;-17
2023/05/17 03:19:15;;;;;;;;;;;17.60;68.20;;;;;;5076549;28;19948;-15
2023/05/17 03:21:41;;;;;;;;;;;17.60;68.30;;;;;;5093474;28;19985;-18
2023/05/17 03:24:07;;;;;;;;;;;17.60;68.30;;;;;;5095446;28;20197;-18
2023/05/17 03:26:32;;;;;;;;;;;17.60;68.30;;;;;;5094977;28;20296;-14
2023/05/17 03:28:58;;;;;;;;;;;17.60;68.30;;;;;;5094986;28;20025;-17
2023/05/17 03:31:24;;;;;;;;;;;17.60;68.30;;;;;;5076783;28;20308;-14
2023/05/17 03:33:49;;;;;;;;;;;17.50;68.20;;;;;;5078672;28;19918;-16
2023/05/17 03:36:15;;;;;;;;;;;17.50;68.20;;;;;;5080891;28;19912;-17
2023/05/17 03:38:40;;;;;;;;;;;17.50;68.20;;;;;;5098062;28;19978;-13
2023/05/17 03:41:06;;;;;;;;;;;17.50;68.20;;;;;;5079226;28;19908;-15
2023/05/17 03:43:32;;;;;;;;;;;17.50;68.10;;;;;;5097094;28;19912;-17
2023/05/17 03:45:57;;;;;;;;;;;17.50;68.20;;;;;;5097380;28;19907;-16
2023/05/17 03:48:23;;;;;;;;;;;17.50;68.10;;;;;;5096137;28;19957;-16
2023/05/17 03:50:48;;;;;;;;;;;17.50;68.10;;;;;;5080200;28;19973;-16
2023/05/17 03:53:14;;;;;;;;;;;17.50;68.10;;;;;;5079742;28;20216;-16
2023/05/17 03:55:40;;;;;;;;;;;17.50;68.00;;;;;;5080356;28;19908;-18
2023/05/17 03:58:05;;;;;;;;;;;17.50;68.10;;;;;;5079987;28;20263;-17
2023/05/17 04:00:31;;;;;;;;;;;17.50;68.10;;;;;;5080721;28;20279;-13
2023/05/17 04:02:57;;;;;;;;;;;17.50;68.00;;;;;;5096747;28;19915;-13
2023/05/17 04:05:23;;;;;;;;;;;17.50;68.00;;;;;;5096259;28;20316;-16
2023/05/17 04:07:48;;;;;;;;;;;17.50;68.70;;;;;;5080144;28;19935;-16
2023/05/17 04:10:14;;;;;;;;;;;17.50;68.00;;;;;;5078631;28;19985;-16
2023/05/17 04:12:40;;;;;;;;;;;17.50;68.00;;;;;;5095714;28;20346;-18
2023/05/17 04:15:06;;;;;;;;;;;17.50;68.00;;;;;;5098282;28;20318;-16
2023/05/17 04:17:31;;;;;;;;;;;17.50;68.00;;;;;;5083185;28;19942;-15
2023/05/17 04:19:57;;;;;;;;;;;17.50;67.90;;;;;;5100622;28;19965;-16
2023/05/17 04:22:24;;;;;;;;;;;17.50;67.80;;;;;;5082575;28;19965;-15
2023/05/17 04:24:49;;;;;;;;;;;17.50;67.80;;;;;;5079572;28;19962;-17
2023/05/17 04:27:15;;;;;;;;;;;17.50;67.80;;;;;;5081200;28;19913;-16
2023/05/17 04:29:41;;;;;;;;;;;17.50;67.80;;;;;;5062575;28;19916;-14
2023/05/17 04:32:07;;;;;;;;;;;17.50;67.70;;;;;;5062366;28;20183;-15
2023/05/17 04:34:32;;;;;;;;;;;17.50;67.60;;;;;;5082593;28;19944;-17
2023/05/17 04:36:58;;;;;;;;;;;17.50;67.60;;;;;;5096493;28;19984;-17
2023/05/17 04:39:24;;;;;;;;;;;17.50;67.50;;;;;;5091801;28;19909;-14
2023/05/17 04:41:49;;;;;;;;;;;17.50;67.50;;;;;;5092976;28;19939;-14
2023/05/17 04:44:15;;;;;;;;;;;17.50;67.40;;;;;;5075206;28;19913;-17
2023/05/17 04:46:42;;;;;;;;;;;17.50;67.40;;;;;;5074805;28;20163;-17
2023/05/17 04:49:08;;;;;;;;;;;17.50;67.20;;;;;;5077219;28;19912;-15
2023/05/17 04:51:34;;;;;;;;;;;17.50;67.20;;;;;;5073830;28;19947;-14
2023/05/17 04:54:00;;;;;;;;;;;17.50;67.10;;;;;;5094039;28;19943;-14
2023/05/17 04:56:26;;;;;;;;;;;17.50;67.00;;;;;;5075097;28;20201;-18
2023/05/17 04:58:52;;;;;;;;;;;17.50;66.90;;;;;;5075156;28;19992;-17
2023/05/17 05:01:18;;;;;;;;;;;17.50;66.70;;;;;;5075237;22;19929;-14
2023/05/17 05:03:43;;;;;;;;;;;17.60;66.60;;;;;;5052580;28;19909;-16
2023/05/17 05:06:10;;;;;;;;;;;17.60;66.40;;;;;;5050379;28;19919;-16
2023/05/17 05:08:36;;;;;;;;;;;17.60;66.20;;;;;;5049433;28;19951;-16
2023/05/17 05:11:02;;;;;;;;;;;17.70;66.70;;;;;;5050265;28;19959;-14
2023/05/17 05:13:27;;;;;;;;;;;17.70;65.90;;;;;;5051353;28;19937;-13
2023/05/17 05:15:53;;;;;;;;;;;17.70;65.70;;;;;;5050153;28;19912;-17
2023/05/17 05:18:18;;;;;;;;;;;17.70;65.50;;;;;;5051110;28;19939;-15
2023/05/17 05:20:44;;;;;;;;;;;17.80;65.30;;;;;;5049258;28;19908;-16
2023/05/17 05:23:10;;;;;;;;;;;17.80;65.00;;;;;;5052351;28;19908;-14
2023/05/17 05:25:36;;;;;;;;;;;17.90;64.60;;;;;;5048872;28;19974;-16
2023/05/17 05:28:01;;;;;;;;;;;17.90;64.40;;;;;;5048250;28;19919;-16
2023/05/17 05:30:27;;;;;;;;;;;18.00;64.20;;;;;;5049232;28;19916;-15
2023/05/17 05:32:53;;;;;;;;;;;18.00;64.00;;;;;;5047722;28;20144;-15
2023/05/17 05:35:19;;;;;;;;;;;18.10;63.90;;;;;;5047742;28;20173;-17
2023/05/17 05:37:44;;;;;;;;;;;18.20;63.70;;;;;;5047601;28;19974;-16
2023/05/17 05:40:10;;;;;;;;;;;18.30;63.10;;;;;;5047473;28;20194;-17
2023/05/17 05:42:36;;;;;;;;;;;18.40;62.70;;;;;;5046052;28;19920;-16
2023/05/17 05:45:02;;;;;;;;;;;18.40;62.40;;;;;;5048045;28;19917;-18
2023/05/17 05:47:28;;;;;;;;;;;18.50;61.90;;;;;;5046641;28;20266;-17
2023/05/17 05:49:53;;;;;;;;;;;18.60;61.50;;;;;;5049106;28;19913;-16
2023/05/17 05:52:20;;;;;;;;;;;18.70;61.00;;;;;;5049315;28;19947;-15
2023/05/17 05:54:46;;;;;;;;;;;18.80;60.60;;;;;;5049016;28;19908;-18
2023/05/17 05:57:12;;;;;;;;;;;18.80;60.20;;;;;;5045827;28;20041;-17
2023/05/17 05:59:37;;;;;;;;;;;18.90;59.80;;;;;;5044868;28;19916;-17
2023/05/17 06:02:03;;;;;;;;;;;19.00;59.70;;;;;;5054255;22;19932;-15
2023/05/17 06:04:29;;;;;;;;;;;19.10;59.50;;;;;;5045349;28;19991;-14
2023/05/17 06:06:54;;;;;;;;;;;19.20;59.30;;;;;;5027817;28;19913;-15
2023/05/17 06:09:20;;;;;;;;;;;19.20;59.00;;;;;;5027764;28;19928;-14
2023/05/17 06:11:46;;;;;;;;;;;19.40;58.80;;;;;;5047015;28;20321;-16
2023/05/17 06:14:11;;;;;;;;;;;19.50;58.60;;;;;;5046921;28;20116;-16
2023/05/17 06:16:37;;;;;;;;;;;19.50;58.30;;;;;;5028021;28;20116;-15
2023/05/17 06:19:03;;;;;;;;;;;19.60;58.20;;;;;;5047339;28;19913;-17
2023/05/17 06:21:28;;;;;;;;;;;19.70;58.00;;;;;;5032067;28;19909;-18
2023/05/17 06:23:54;;;;;;;;;;;19.80;57.90;;;;;;5048639;28;20007;-17
2023/05/17 06:26:20;;;;;;;;;;;19.80;57.80;;;;;;5031471;28;19908;-15
2023/05/17 06:28:45;;;;;;;;;;;19.90;57.70;;;;;;5047695;28;20409;-16
2023/05/17 06:31:11;;;;;;;;;;;20.00;57.90;;;;;;5031969;28;19919;-15
2023/05/17 06:33:36;;;;;;;;;;;20.10;58.80;;;;;;5047676;28;20054;-16
2023/05/17 06:36:02;;;;;;;;;;;20.10;58.30;;;;;;5049623;28;20013;-16
2023/05/17 06:38:27;;;;;;;;;;;20.30;58.20;;;;;;5031418;28;20198;-14
2023/05/17 06:40:54;;;;;;;;;;;20.50;57.80;;;;;;5045564;28;20325;-16
2023/05/17 06:43:20;;;;;;;;;;;20.60;57.20;;;;;;5047599;28;20305;-14
2023/05/17 06:45:45;;;;;;;;;;;20.80;56.80;;;;;;5046223;28;19909;-16
2023/05/17 06:48:11;;;;;;;;;;;21.00;56.40;;;;;;5029880;28;19917;-16
2023/05/17 06:50:37;;;;;;;;;;;21.30;56.00;;;;;;5028300;28;20324;-18
2023/05/17 06:53:03;;;;;;;;;;;21.40;55.70;;;;;;5030281;28;20318;-16
2023/05/17 06:55:29;;;;;;;;;;;21.70;55.60;;;;;;5046708;28;19915;-17
2023/05/17 06:57:54;;;;;;;;;;;22.00;55.00;;;;;;5045577;28;20019;-16
2023/05/17 07:00:23;;;;;;;;;;;22.10;54.50;;;;;;5034432;28;19940;-16
2023/05/17 07:02:49;;;;;;;;;;;22.30;54.20;;;;;;5009584;28;19928;-15
2023/05/17 07:05:14;;;;;;;;;;;22.60;53.70;;;;;;5028743;28;19913;-14
2023/05/17 07:07:39;;;;;;;;;;;23.00;53.20;;;;;;5026143;28;20130;-15
2023/05/17 07:10:06;;;;;;;;;;;23.40;52.60;;;;;;5027074;28;19948;-16
2023/05/17 07:12:32;;;;;;;;;;;23.60;52.00;;;;;;5027866;28;19988;-17
2023/05/17 07:14:57;;;;;;;;;;;23.70;51.80;;;;;;5028527;28;20164;-13
2023/05/17 07:17:23;;;;;;;;;;;23.50;51.70;;;;;;5027708;28;20278;-17
2023/05/17 07:19:49;;;;;;;;;;;23.60;52.00;;;;;;5025212;28;20078;-16
2023/05/17 07:22:18;;;;;;;;;;;23.80;51.50;;;;;;5026743;28;19925;-17
2023/05/17 07:24:44;;;;;;;;;;;24.20;51.30;;;;;;5025751;28;19921;-18
2023/05/17 07:27:10;;;;;;;;;;;24.60;50.70;;;;;;5013710;28;19926;-18
2023/05/17 07:29:41;;;;;;;;;;;24.80;50.20;;;;;;5035679;28;19914;-16
2023/05/17 07:32:08;;;;;;;;;;;25.10;49.80;;;;;;5035926;28;19987;-17
2023/05/17 07:34:35;;;;;;;;;;;25.40;49.50;;;;;;5019074;28;19909;-16
2023/05/17 07:37:00;;;;;;;;;;;25.70;49.10;;;;;;5036089;28;19905;-16
2023/05/17 07:39:32;;;;;;;;;;;25.90;48.80;;;;;;5022036;28;19913;-17
2023/05/17 07:41:58;;;;;;;;;;;26.00;48.60;;;;;;5056364;28;19970;-15
2023/05/17 07:44:24;;;;;;;;;;;25.90;48.50;;;;;;5056359;28;20005;-15
2023/05/17 07:46:49;;;;;;;;;;;25.60;48.20;;;;;;5038443;28;19919;-18
2023/05/17 07:49:15;;;;;;;;;;;25.80;48.50;;;;;;5038770;28;20012;-17
2023/05/17 07:51:40;;;;;;;;;;;25.80;48.20;;;;;;5056034;28;19909;-18
2023/05/17 07:54:06;;;;;;;;;;;26.00;48.20;;;;;;5055743;28;20327;-18
2023/05/17 07:56:33;;;;;;;;;;;26.50;47.80;;;;;;5038934;28;19948;-15
2023/05/17 07:58:59;;;;;;;;;;;26.60;47.60;;;;;;5038019;28;19913;-17
2023/05/17 08:01:25;;;;;;;;;;;26.20;47.20;;;;;;5055081;28;19978;-16
2023/05/17 08:03:51;;;;;;;;;;;25.50;47.60;;;;;;5038310;28;19909;-16
2023/05/17 08:06:17;;;;;;;;;;;24.90;48.10;;;;;;5055717;28;19986;-18
2023/05/17 08:08:43;;;;;;;;;;;24.50;48.60;;;;;;5046743;28;19917;-17
2023/05/17 08:11:09;;;;;;;;;;;24.10;48.90;;;;;;5036604;28;19924;-17
2023/05/17 08:13:35;;;;;;;;;;;23.80;49.30;;;;;;5036533;28;20022;-16
2023/05/17 08:16:08;;;;;;;;;;;23.60;49.70;;;;;;5036159;28;19913;-18
2023/05/17 08:18:33;;;;;;;;;;;23.40;50.00;;;;;;5017559;28;19924;-15
2023/05/17 08:20:59;;;;;;;;;;;23.10;50.20;;;;;;5021398;28;19909;-18
2023/05/17 08:23:25;;;;;;;;;;;22.90;50.60;;;;;;5038993;28;20354;-16
2023/05/17 08:25:50;;;;;;;;;;;23.00;50.90;;;;;;5021163;28;19952;-14
2023/05/17 08:28:16;;;;;;;;;;;24.20;50.30;;;;;;5058400;28;19936;-16
2023/05/17 08:30:42;;;;;;;;;;;25.30;49.30;;;;;;5050247;23;19940;-17
2023/05/17 08:33:10;;;;;;;;;;;26.10;48.40;;;;;;5049938;28;20205;-17
2023/05/17 08:35:36;;;;;;;;;;;26.60;47.80;;;;;;5050799;28;20174;-17
2023/05/17 08:38:03;;;;;;;;;;;27.20;47.30;;;;;;5072529;28;19920;-17
2023/05/17 08:40:28;;;;;;;;;;;27.60;46.80;;;;;;5069964;28;19919;-15
2023/05/17 08:42:54;;;;;;;;;;;28.00;46.30;;;;;;5052186;28;19908;-16
2023/05/17 08:45:21;;;;;;;;;;;28.40;46.00;;;;;;5072120;28;20281;-15
2023/05/17 08:47:47;;;;;;;;;;;28.70;45.50;;;;;;5070616;28;19952;-16
2023/05/17 08:50:13;;;;;;;;;;;29.00;45.20;;;;;;5070762;28;19973;-16
2023/05/17 08:52:40;;;;;;;;;;;29.20;44.90;;;;;;5068297;28;19919;-16
2023/05/17 08:55:07;;;;;;;;;;;29.40;44.60;;;;;;5071216;28;20051;-17
2023/05/17 08:57:36;;;;;;;;;;;29.60;44.40;;;;;;5068488;28;19913;-17
2023/05/17 09:00:05;;;;;;;;;;;29.60;44.10;;;;;;5068621;28;19909;-16
2023/05/17 09:02:31;;;;;;;;;;;29.80;44.00;;;;;;5070552;28;19919;-17
2023/05/17 09:04:57;;;;;;;;;;;30.00;43.80;;;;;;5068668;28;19978;-17
2023/05/17 09:07:23;;;;;;;;;;;30.20;43.70;;;;;;5069223;28;20261;-16
2023/05/17 09:09:52;;;;;;;;;;;30.30;43.50;;;;;;5050723;28;19909;-16
2023/05/17 09:12:18;;;;;;;;;;;30.40;43.30;;;;;;5069811;28;19908;-17
2023/05/17 09:14:44;;;;;;;;;;;30.50;43.20;;;;;;5065803;28;19974;-14
2023/05/17 09:17:20;;;;;;;;;;;30.60;43.10;;;;;;5067242;28;19925;-16
2023/05/17 09:19:46;;;;;;;;;;;30.70;42.90;;;;;;5048515;28;20333;-16
2023/05/17 09:22:18;;;;;;;;;;;30.80;42.70;;;;;;5069895;28;20181;-17
2023/05/17 09:24:44;;;;;;;;;;;30.30;42.50;;;;;;5067970;28;19908;-17
2023/05/17 09:27:13;;;;;;;;;;;28.90;43.00;;;;;;5068138;28;19908;-17
2023/05/17 09:29:39;;;;;;;;;;;27.90;43.80;;;;;;5070146;28;19916;-15
2023/05/17 09:32:15;;;;;;;;;;;27.20;44.40;;;;;;5052341;28;20388;-16
2023/05/17 09:34:41;;;;;;;;;;;26.90;44.90;;;;;;5073889;28;19961;-17
2023/05/17 09:37:14;;;;;;;;;;;26.30;45.10;;;;;;5076701;28;19908;-15
2023/05/17 09:39:40;;;;;;;;;;;26.20;45.70;;;;;;5059660;28;19958;-16
2023/05/17 09:42:08;;;;;;;;;;;27.10;45.40;;;;;;5076177;28;19912;-15
2023/05/17 09:44:52;;;;;;;;;;;27.50;45.00;;;;;;5058718;28;19908;-17
2023/05/17 09:47:27;;;;;;;;;;;27.50;44.80;;;;;;5058242;28;19909;-17
2023/05/17 09:50:03;;;;;;;;;;;27.20;44.80;;;;;;5075885;28;19909;-17
2023/05/17 09:52:33;;;;;;;;;;;26.90;44.90;;;;;;5074846;28;20461;-17
2023/05/17 09:55:00;;;;;;;;;;;26.70;45.10;;;;;;5075402;28;19916;-17
2023/05/17 09:57:26;;;;;;;;;;;26.40;45.40;;;;;;5074048;28;20304;-19
2023/05/17 09:59:58;;;;;;;;;;;26.10;45.50;;;;;;5058882;28;19908;-17
2023/05/17 10:02:29;;;;;;;;;;;25.90;45.70;;;;;;5076010;28;19908;-14
2023/05/17 10:04:56;;;;;;;;;;;25.70;45.90;;;;;;5058685;28;20349;-18
2023/05/17 10:07:24;;;;;;;;;;;25.50;46.10;;;;;;5076341;28;19944;-18
2023/05/17 10:09:50;;;;;;;;;;;25.30;46.20;;;;;;5075743;28;19919;-17
2023/05/17 10:12:17;;;;;;;;;;;25.20;46.50;;;;;;5076267;28;19919;-18
2023/05/17 10:14:46;;;;;;;;;;;25.10;46.60;;;;;;5075123;28;20543;-17
2023/05/17 10:17:12;;;;;;;;;;;24.90;46.60;;;;;;5075301;28;20274;-16
2023/05/17 10:19:38;;;;;;;;;;;24.80;46.80;;;;;;5059406;28;20155;-17
2023/05/17 10:22:05;;;;;;;;;;;24.70;46.90;;;;;;5075544;28;19915;-18
2023/05/17 10:24:38;;;;;;;;;;;24.60;47.00;;;;;;5075654;28;19908;-18
2023/05/17 10:27:05;;;;;;;;;;;24.50;47.10;;;;;;5075648;28;19909;-18
2023/05/17 10:29:31;;;;;;;;;;;24.40;47.20;;;;;;5075186;28;19908;-18
2023/05/17 10:32:02;;;;;;;;;;;24.30;47.30;;;;;;5074577;22;19936;-17
2023/05/17 10:34:28;;;;;;;;;;;24.20;47.50;;;;;;5064835;28;19912;-17
2023/05/17 10:36:54;;;;;;;;;;;24.10;47.60;;;;;;5048531;28;19908;-19
2023/05/17 10:39:20;;;;;;;;;;;24.10;47.70;;;;;;5048829;28;20066;-18
2023/05/17 10:41:47;;;;;;;;;;;24.10;47.70;;;;;;5065053;28;19920;-16
2023/05/17 10:44:13;;;;;;;;;;;24.10;47.70;;;;;;5064087;28;19916;-17
2023/05/17 10:46:39;;;;;;;;;;;24.10;47.80;;;;;;5065274;28;20015;-15
2023/05/17 10:49:05;;;;;;;;;;;24.00;47.80;;;;;;5065559;28;20003;-17
2023/05/17 10:51:32;;;;;;;;;;;24.00;47.90;;;;;;5046712;28;19908;-14
2023/05/17 10:54:08;;;;;;;;;;;23.90;48.00;;;;;;5065393;28;20011;-17
2023/05/17 10:56:34;;;;;;;;;;;23.90;48.10;;;;;;5064470;28;20236;-17
2023/05/17 10:59:16;;;;;;;;;;;23.90;48.10;;;;;;5063630;28;20277;-14
2023/05/17 11:01:53;;;;;;;;;;;23.80;48.20;;;;;;5063603;28;20053;-17
2023/05/17 11:04:38;;;;;;;;;;;23.80;48.30;;;;;;5063735;28;19909;-17
2023/05/17 11:07:20;;;;;;;;;;;23.70;48.30;;;;;;5046128;28;20096;-18
2023/05/17 11:09:55;;;;;;;;;;;23.70;48.50;;;;;;5061613;28;19909;-18
2023/05/17 11:12:26;;;;;;;;;;;23.60;48.50;;;;;;5062334;28;20001;-16
2023/05/17 11:14:53;;;;;;;;;;;23.60;48.60;;;;;;5063686;28;20167;-16
2023/05/17 11:17:37;;;;;;;;;;;23.60;48.70;;;;;;5064401;28;19912;-17
2023/05/17 11:20:05;;;;;;;;;;;23.50;48.70;;;;;;5066718;28;20070;-15
2023/05/17 11:22:36;;;;;;;;;;;23.50;48.80;;;;;;5069126;28;19935;-14
2023/05/17 11:25:05;;;;;;;;;;;23.40;48.90;;;;;;5067757;28;19908;-17
2023/05/17 11:27:35;;;;;;;;;;;23.40;49.00;;;;;;5066490;28;19920;-17
2023/05/17 11:30:06;;;;;;;;;;;23.30;49.10;;;;;;5065490;28;19920;-17
2023/05/17 11:32:32;;;;;;;;;;;23.30;49.20;;;;;;5066366;28;19916;-17
2023/05/17 11:34:58;;;;;;;;;;;23.20;49.20;;;;;;5062977;28;19920;-17
2023/05/17 11:37:25;;;;;;;;;;;23.20;49.30;;;;;;5064945;28;19912;-16
2023/05/17 11:40:04;;;;;;;;;;;23.20;49.40;;;;;;5065005;28;19916;-17
2023/05/17 11:42:30;;;;;;;;;;;23.10;49.50;;;;;;5062617;28;19913;-13
2023/05/17 11:44:56;;;;;;;;;;;23.10;49.60;;;;;;5063059;28;20190;-22
2023/05/17 11:47:22;;;;;;;;;;;23.10;49.60;;;;;;5064649;28;19916;-17
2023/05/17 11:49:51;;;;;;;;;;;23.00;49.60;;;;;;5043368;28;20309;-17
2023/05/17 11:52:17;;;;;;;;;;;23.00;49.70;;;;;;5060916;28;19952;-17
2023/05/17 11:54:44;;;;;;;;;;;22.90;49.90;;;;;;5064964;28;19935;-16
2023/05/17 11:57:14;;;;;;;;;;;22.90;50.00;;;;;;5066825;28;20077;-19
2023/05/17 11:59:40;;;;;;;;;;;22.80;50.00;;;;;;5050427;28;19932;-15
2023/05/17 12:02:05;;;;;;;;;;;22.80;50.00;;;;;;5050178;28;20476;-16
2023/05/17 12:04:33;;;;;;;;;;;22.80;50.00;;;;;;5069589;28;19939;-16
2023/05/17 12:07:00;;;;;;;;;;;22.80;50.10;;;;;;5051234;28;19909;-17
2023/05/17 12:09:26;;;;;;;;;;;22.70;50.10;;;;;;5051237;28;19916;-15
2023/05/17 12:11:52;;;;;;;;;;;22.70;50.20;;;;;;5069283;28;19940;-17
2023/05/17 12:14:19;;;;;;;;;;;22.70;50.20;;;;;;5068811;28;20167;-17
2023/05/17 12:16:47;;;;;;;;;;;22.70;49.90;;;;;;5068414;28;20343;-15
2023/05/17 12:19:17;;;;;;;;;;;22.60;50.10;;;;;;5065538;28;19921;-16
2023/05/17 12:21:43;;;;;;;;;;;22.60;50.30;;;;;;5064921;28;20165;-16
2023/05/17 12:24:08;;;;;;;;;;;22.50;50.30;;;;;;5066537;28;19908;-15
2023/05/17 12:26:35;;;;;;;;;;;22.50;50.40;;;;;;5048385;28;19908;-15
2023/05/17 12:29:00;;;;;;;;;;;22.50;50.20;;;;;;5050988;28;19915;-18
2023/05/17 12:31:33;;;;;;;;;;;22.50;50.40;;;;;;5051430;28;19916;-16
2023/05/17 12:34:00;;;;;;;;;;;22.40;50.50;;;;;;5068345;28;19920;-15
2023/05/17 12:36:27;;;;;;;;;;;22.40;50.60;;;;;;5068131;28;20172;-15
2023/05/17 12:38:54;;;;;;;;;;;22.40;50.60;;;;;;5048925;28;20164;-17
2023/05/17 12:41:21;;;;;;;;;;;22.40;50.70;;;;;;5047979;28;20148;-15
2023/05/17 12:43:47;;;;;;;;;;;22.40;50.70;;;;;;5047529;28;19965;-15
2023/05/17 12:46:16;;;;;;;;;;;22.40;50.70;;;;;;5067436;28;19917;-16
2023/05/17 12:48:42;;;;;;;;;;;22.40;50.40;;;;;;5067263;28;20085;-13
2023/05/17 12:51:09;;;;;;;;;;;22.40;50.30;;;;;;5066011;28;19923;-17
2023/05/17 12:53:36;;;;;;;;;;;22.40;50.70;;;;;;5047635;28;19908;-17
2023/05/17 12:56:02;;;;;;;;;;;22.30;50.60;;;;;;5066404;28;19920;-15
2023/05/17 12:58:27;;;;;;;;;;;22.30;50.80;;;;;;5047873;28;19912;-17
2023/05/17 13:01:05;;;;;;;;;;;22.20;50.40;;;;;;5065753;28;20017;-16
2023/05/17 13:03:31;;;;;;;;;;;22.20;50.70;;;;;;5047519;28;20197;-18
2023/05/17 13:06:08;;;;;;;;;;;22.20;50.50;;;;;;5047210;28;19998;-17
2023/05/17 13:08:34;;;;;;;;;;;22.20;50.50;;;;;;5064301;28;20074;-16
2023/05/17 13:11:06;;;;;;;;;;;22.20;50.70;;;;;;5047342;28;19915;-15
2023/05/17 13:13:32;;;;;;;;;;;22.10;50.40;;;;;;5063813;28;20248;-17
2023/05/17 13:15:57;;;;;;;;;;;22.10;50.50;;;;;;5065453;28;20293;-15
2023/05/17 13:18:23;;;;;;;;;;;22.10;50.60;;;;;;5064740;28;20156;-15
2023/05/17 13:20:50;;;;;;;;;;;22.10;50.70;;;;;;5066370;28;19912;-15
2023/05/17 13:23:16;;;;;;;;;;;22.10;50.80;;;;;;5064936;28;19915;-15
2023/05/17 13:25:41;;;;;;;;;;;22.10;50.70;;;;;;5064747;28;19908;-16
2023/05/17 13:28:07;;;;;;;;;;;22.10;50.50;;;;;;5065043;28;19909;-17
2023/05/17 13:30:32;;;;;;;;;;;22.10;50.50;;;;;;5047199;28;20148;-16
2023/05/17 13:32:58;;;;;;;;;;;22.10;50.80;;;;;;5047583;28;20190;-16
2023/05/17 13:35:24;;;;;;;;;;;22.00;50.70;;;;;;5047778;28;19909;-15
2023/05/17 13:37:49;;;;;;;;;;;22.00;50.70;;;;;;5067145;28;19912;-15
2023/05/17 13:40:15;;;;;;;;;;;22.00;50.40;;;;;;5066301;28;19919;-15
2023/05/17 13:42:40;;;;;;;;;;;22.00;50.40;;;;;;5067050;28;20008;-18
2023/05/17 13:45:08;;;;;;;;;;;22.00;50.60;;;;;;5065608;28;20153;-17
2023/05/17 13:47:34;;;;;;;;;;;22.00;50.60;;;;;;5064797;28;19908;-17
2023/05/17 13:49:59;;;;;;;;;;;22.00;50.80;;;;;;5064376;28;20024;-17
2023/05/17 13:52:25;;;;;;;;;;;22.00;50.60;;;;;;5064691;28;19908;-17
2023/05/17 13:54:51;;;;;;;;;;;21.90;50.50;;;;;;5048854;28;19952;-15
2023/05/17 13:57:17;;;;;;;;;;;21.90;50.60;;;;;;5063691;28;20203;-18
2023/05/17 13:59:42;;;;;;;;;;;21.90;50.50;;;;;;5069948;28;19977;-15
2023/05/17 14:02:09;;;;;;;;;;;21.90;50.40;;;;;;5059029;28;19974;-18
2023/05/17 14:04:34;;;;;;;;;;;21.90;50.50;;;;;;5074062;28;19973;-19
2023/05/17 14:07:00;;;;;;;;;;;21.80;50.40;;;;;;5058647;28;19912;-17
2023/05/17 14:09:29;;;;;;;;;;;21.90;50.40;;;;;;5058236;28;19919;-16
2023/05/17 14:11:55;;;;;;;;;;;21.80;50.50;;;;;;5058414;28;19944;-17
2023/05/17 14:14:24;;;;;;;;;;;21.80;50.40;;;;;;5075821;28;19919;-16
2023/05/17 14:16:50;;;;;;;;;;;21.80;50.60;;;;;;5058108;28;19931;-18